Terminal Aerodrome Forecast
Issued by NWS

Home | Current Version | Previous Version | Text Only | Print | Product List | Glossary On
Versions: 1 2 3 4 5 6 7 8 9 10 11 12
903
FTUS42 KMHX 251727
TAFISO
TAF
KISO 251727Z 2518/2618 22009G18KT P6SM BKN045
     FM260000 18006KT P6SM SKC
     FM260900 VRB03KT 5SM BR SKC
     FM261200 17007KT P6SM FEW030
      AMD LTD TO CLD VIS AND WIND=

USA.gov is the U.S. government's official web portal to all federal, state and local government web resources and services.